sensor_id;sensor_type;location;lat;lon;timestamp;temperature;humidity
18287;DHT22;9269;50.838;12.094;2022-09-20T00:01:41;14.90;51.00
18287;DHT22;9269;50.838;12.094;2022-09-20T00:04:11;14.90;51.50
18287;DHT22;9269;50.838;12.094;2022-09-20T00:06:41;14.80;51.60
18287;DHT22;9269;50.838;12.094;2022-09-20T00:09:09;14.80;51.30
18287;DHT22;9269;50.838;12.094;2022-09-20T00:11:38;14.80;51.10
18287;DHT22;9269;50.838;12.094;2022-09-20T00:14:07;14.80;51.50
18287;DHT22;9269;50.838;12.094;2022-09-20T00:16:36;14.80;51.40
18287;DHT22;9269;50.838;12.094;2022-09-20T00:19:07;14.80;51.60
18287;DHT22;9269;50.838;12.094;2022-09-20T00:21:37;14.80;51.20
18287;DHT22;9269;50.838;12.094;2022-09-20T00:24:08;14.80;51.70
18287;DHT22;9269;50.838;12.094;2022-09-20T00:26:36;14.80;51.50
18287;DHT22;9269;50.838;12.094;2022-09-20T00:29:05;14.80;51.50
18287;DHT22;9269;50.838;12.094;2022-09-20T00:31:36;14.70;51.70
18287;DHT22;9269;50.838;12.094;2022-09-20T00:34:08;14.80;51.70
18287;DHT22;9269;50.838;12.094;2022-09-20T00:36:56;14.80;51.40
18287;DHT22;9269;50.838;12.094;2022-09-20T00:39:25;14.80;51.40
18287;DHT22;9269;50.838;12.094;2022-09-20T00:41:54;14.70;51.40
18287;DHT22;9269;50.838;12.094;2022-09-20T00:44:43;14.70;50.90
18287;DHT22;9269;50.838;12.094;2022-09-20T00:47:21;14.70;51.20
18287;DHT22;9269;50.838;12.094;2022-09-20T00:49:52;14.70;51.30
18287;DHT22;9269;50.838;12.094;2022-09-20T00:52:26;14.70;51.20
18287;DHT22;9269;50.838;12.094;2022-09-20T00:54:57;14.70;50.90
18287;DHT22;9269;50.838;12.094;2022-09-20T00:57:28;14.70;51.10
18287;DHT22;9269;50.838;12.094;2022-09-20T01:00:03;14.60;51.50
18287;DHT22;9269;50.838;12.094;2022-09-20T01:02:34;14.70;50.90
18287;DHT22;9269;50.838;12.094;2022-09-20T01:05:04;14.70;51.30
18287;DHT22;9269;50.838;12.094;2022-09-20T01:07:34;14.70;51.50
18287;DHT22;9269;50.838;12.094;2022-09-20T01:10:03;14.70;51.70
18287;DHT22;9269;50.838;12.094;2022-09-20T01:12:32;14.70;51.50
18287;DHT22;9269;50.838;12.094;2022-09-20T01:15:03;14.70;51.10
18287;DHT22;9269;50.838;12.094;2022-09-20T01:17:35;14.60;51.70
18287;DHT22;9269;50.838;12.094;2022-09-20T01:20:13;14.60;51.30
18287;DHT22;9269;50.838;12.094;2022-09-20T01:23:07;14.60;51.50
18287;DHT22;9269;50.838;12.094;2022-09-20T01:25:56;14.50;51.30
18287;DHT22;9269;50.838;12.094;2022-09-20T01:28:32;14.60;51.00
18287;DHT22;9269;50.838;12.094;2022-09-20T01:31:05;14.60;51.00
18287;DHT22;9269;50.838;12.094;2022-09-20T01:33:40;14.50;51.10
18287;DHT22;9269;50.838;12.094;2022-09-20T01:36:15;14.50;50.80
18287;DHT22;9269;50.838;12.094;2022-09-20T01:38:50;14.50;51.00
18287;DHT22;9269;50.838;12.094;2022-09-20T01:41:25;14.50;51.10
18287;DHT22;9269;50.838;12.094;2022-09-20T01:44:03;14.60;50.90
18287;DHT22;9269;50.838;12.094;2022-09-20T01:46:34;14.50;51.00
18287;DHT22;9269;50.838;12.094;2022-09-20T01:49:15;14.60;50.60
18287;DHT22;9269;50.838;12.094;2022-09-20T01:52:24;14.60;50.80
18287;DHT22;9269;50.838;12.094;2022-09-20T01:55:32;14.60;51.40
18287;DHT22;9269;50.838;12.094;2022-09-20T01:58:46;14.60;51.00
18287;DHT22;9269;50.838;12.094;2022-09-20T02:05:11;14.50;50.90
18287;DHT22;9269;50.838;12.094;2022-09-20T02:08:07;14.50;51.00
18287;DHT22;9269;50.838;12.094;2022-09-20T02:11:03;14.40;51.10
18287;DHT22;9269;50.838;12.094;2022-09-20T02:13:57;14.40;50.90
18287;DHT22;9269;50.838;12.094;2022-09-20T02:16:49;14.40;51.00
18287;DHT22;9269;50.838;12.094;2022-09-20T02:19:40;14.40;51.20
18287;DHT22;9269;50.838;12.094;2022-09-20T02:22:25;14.30;51.20
18287;DHT22;9269;50.838;12.094;2022-09-20T02:25:05;14.40;51.20
18287;DHT22;9269;50.838;12.094;2022-09-20T02:27:48;14.30;51.10
18287;DHT22;9269;50.838;12.094;2022-09-20T02:30:30;14.30;51.00
18287;DHT22;9269;50.838;12.094;2022-09-20T02:33:30;14.30;50.90
18287;DHT22;9269;50.838;12.094;2022-09-20T02:36:13;14.20;51.20
18287;DHT22;9269;50.838;12.094;2022-09-20T02:38:52;14.20;51.10
18287;DHT22;9269;50.838;12.094;2022-09-20T02:44:46;14.20;51.20
18287;DHT22;9269;50.838;12.094;2022-09-20T02:47:21;14.10;51.40
18287;DHT22;9269;50.838;12.094;2022-09-20T02:50:06;14.10;51.40
18287;DHT22;9269;50.838;12.094;2022-09-20T02:52:43;14.10;51.30
18287;DHT22;9269;50.838;12.094;2022-09-20T02:55:17;14.10;51.40
18287;DHT22;9269;50.838;12.094;2022-09-20T02:57:57;14.00;51.60
18287;DHT22;9269;50.838;12.094;2022-09-20T03:00:38;14.00;51.30
18287;DHT22;9269;50.838;12.094;2022-09-20T03:03:17;14.00;51.10
18287;DHT22;9269;50.838;12.094;2022-09-20T03:05:57;13.90;51.30
18287;DHT22;9269;50.838;12.094;2022-09-20T03:08:35;13.90;51.60
18287;DHT22;9269;50.838;12.094;2022-09-20T03:11:14;13.90;51.40
18287;DHT22;9269;50.838;12.094;2022-09-20T03:13:58;13.80;51.20
18287;DHT22;9269;50.838;12.094;2022-09-20T03:16:33;13.80;51.30
18287;DHT22;9269;50.838;12.094;2022-09-20T03:19:16;13.90;51.40
18287;DHT22;9269;50.838;12.094;2022-09-20T03:21:59;13.80;51.30
18287;DHT22;9269;50.838;12.094;2022-09-20T03:24:40;13.80;51.30
18287;DHT22;9269;50.838;12.094;2022-09-20T03:27:18;13.80;51.10
18287;DHT22;9269;50.838;12.094;2022-09-20T03:29:57;13.70;51.50
18287;DHT22;9269;50.838;12.094;2022-09-20T03:32:40;13.80;51.40
18287;DHT22;9269;50.838;12.094;2022-09-20T03:35:23;13.80;51.70
18287;DHT22;9269;50.838;12.094;2022-09-20T03:38:13;13.70;51.90
18287;DHT22;9269;50.838;12.094;2022-09-20T03:41:15;13.80;51.40
18287;DHT22;9269;50.838;12.094;2022-09-20T03:44:04;13.60;51.80
18287;DHT22;9269;50.838;12.094;2022-09-20T03:46:41;13.70;52.20
18287;DHT22;9269;50.838;12.094;2022-09-20T03:49:40;13.70;52.20
18287;DHT22;9269;50.838;12.094;2022-09-20T03:52:25;13.80;52.30
18287;DHT22;9269;50.838;12.094;2022-09-20T03:55:29;13.70;52.70
18287;DHT22;9269;50.838;12.094;2022-09-20T03:58:06;13.70;52.30
18287;DHT22;9269;50.838;12.094;2022-09-20T04:00:54;13.70;52.20
18287;DHT22;9269;50.838;12.094;2022-09-20T04:03:34;13.70;52.50
18287;DHT22;9269;50.838;12.094;2022-09-20T04:06:16;13.70;52.80
18287;DHT22;9269;50.838;12.094;2022-09-20T04:09:00;13.60;52.70
18287;DHT22;9269;50.838;12.094;2022-09-20T04:11:42;13.70;52.60
18287;DHT22;9269;50.838;12.094;2022-09-20T04:14:24;13.70;52.80
18287;DHT22;9269;50.838;12.094;2022-09-20T04:16:59;13.70;52.60
18287;DHT22;9269;50.838;12.094;2022-09-20T04:19:34;13.60;52.90
18287;DHT22;9269;50.838;12.094;2022-09-20T04:22:07;13.70;53.10
18287;DHT22;9269;50.838;12.094;2022-09-20T04:24:40;13.70;52.50
18287;DHT22;9269;50.838;12.094;2022-09-20T04:27:16;13.70;52.80
18287;DHT22;9269;50.838;12.094;2022-09-20T04:29:50;13.80;52.80
18287;DHT22;9269;50.838;12.094;2022-09-20T04:32:24;13.70;52.90
18287;DHT22;9269;50.838;12.094;2022-09-20T04:34:59;13.80;53.00
18287;DHT22;9269;50.838;12.094;2022-09-20T04:37:48;13.80;52.60
18287;DHT22;9269;50.838;12.094;2022-09-20T04:40:27;13.80;53.00
18287;DHT22;9269;50.838;12.094;2022-09-20T04:43:22;13.80;53.00
18287;DHT22;9269;50.838;12.094;2022-09-20T04:49:29;13.90;52.50
18287;DHT22;9269;50.838;12.094;2022-09-20T04:52:23;13.90;52.60
18287;DHT22;9269;50.838;12.094;2022-09-20T04:58:30;14.00;53.20
18287;DHT22;9269;50.838;12.094;2022-09-20T05:04:54;13.90;52.70
18287;DHT22;9269;50.838;12.094;2022-09-20T05:07:56;13.90;52.80
18287;DHT22;9269;50.838;12.094;2022-09-20T05:13:55;13.80;53.00
18287;DHT22;9269;50.838;12.094;2022-09-20T05:16:28;13.90;53.10
18287;DHT22;9269;50.838;12.094;2022-09-20T05:19:19;13.90;53.30
18287;DHT22;9269;50.838;12.094;2022-09-20T05:22:12;13.90;53.30
18287;DHT22;9269;50.838;12.094;2022-09-20T05:25:20;13.80;53.00
18287;DHT22;9269;50.838;12.094;2022-09-20T05:27:56;13.90;52.90
18287;DHT22;9269;50.838;12.094;2022-09-20T05:30:34;13.90;53.00
18287;DHT22;9269;50.838;12.094;2022-09-20T05:33:14;13.90;53.20
18287;DHT22;9269;50.838;12.094;2022-09-20T05:35:55;14.00;53.30
18287;DHT22;9269;50.838;12.094;2022-09-20T05:38:32;14.00;53.40
18287;DHT22;9269;50.838;12.094;2022-09-20T05:41:07;14.10;53.60
18287;DHT22;9269;50.838;12.094;2022-09-20T05:43:49;14.00;53.50
18287;DHT22;9269;50.838;12.094;2022-09-20T05:46:31;14.10;53.40
18287;DHT22;9269;50.838;12.094;2022-09-20T05:49:10;14.10;53.40
18287;DHT22;9269;50.838;12.094;2022-09-20T05:52:08;14.20;53.30
18287;DHT22;9269;50.838;12.094;2022-09-20T05:55:14;14.10;53.40
18287;DHT22;9269;50.838;12.094;2022-09-20T05:57:57;14.20;53.20
18287;DHT22;9269;50.838;12.094;2022-09-20T06:00:34;14.20;52.90
18287;DHT22;9269;50.838;12.094;2022-09-20T06:03:12;14.20;53.20
18287;DHT22;9269;50.838;12.094;2022-09-20T06:05:54;14.20;53.10
18287;DHT22;9269;50.838;12.094;2022-09-20T06:08:37;14.20;53.30
18287;DHT22;9269;50.838;12.094;2022-09-20T06:11:34;14.20;52.90
18287;DHT22;9269;50.838;12.094;2022-09-20T06:14:16;14.30;53.20
18287;DHT22;9269;50.838;12.094;2022-09-20T06:16:54;14.30;53.00
18287;DHT22;9269;50.838;12.094;2022-09-20T06:19:34;14.40;52.90
18287;DHT22;9269;50.838;12.094;2022-09-20T06:22:11;14.40;53.00
18287;DHT22;9269;50.838;12.094;2022-09-20T06:24:47;14.40;52.60
18287;DHT22;9269;50.838;12.094;2022-09-20T06:27:18;14.40;52.80
18287;DHT22;9269;50.838;12.094;2022-09-20T06:29:51;14.50;53.10
18287;DHT22;9269;50.838;12.094;2022-09-20T06:32:20;14.40;53.00
18287;DHT22;9269;50.838;12.094;2022-09-20T06:34:50;14.50;53.00
18287;DHT22;9269;50.838;12.094;2022-09-20T06:37:32;14.60;53.20
18287;DHT22;9269;50.838;12.094;2022-09-20T06:40:30;14.60;53.20
18287;DHT22;9269;50.838;12.094;2022-09-20T06:43:19;14.50;53.20
18287;DHT22;9269;50.838;12.094;2022-09-20T06:45:48;14.50;52.70
18287;DHT22;9269;50.838;12.094;2022-09-20T06:48:17;14.60;53.20
18287;DHT22;9269;50.838;12.094;2022-09-20T06:50:48;14.60;53.00
18287;DHT22;9269;50.838;12.094;2022-09-20T06:53:26;14.70;52.80
18287;DHT22;9269;50.838;12.094;2022-09-20T06:55:55;14.90;52.60
18287;DHT22;9269;50.838;12.094;2022-09-20T06:58:24;15.00;52.20
18287;DHT22;9269;50.838;12.094;2022-09-20T07:00:54;15.10;52.40
18287;DHT22;9269;50.838;12.094;2022-09-20T07:03:27;15.30;52.50
18287;DHT22;9269;50.838;12.094;2022-09-20T07:06:00;15.40;50.80
18287;DHT22;9269;50.838;12.094;2022-09-20T07:08:31;15.60;51.10
18287;DHT22;9269;50.838;12.094;2022-09-20T07:11:03;15.70;51.00
18287;DHT22;9269;50.838;12.094;2022-09-20T07:13:31;15.60;51.00
18287;DHT22;9269;50.838;12.094;2022-09-20T07:16:01;15.70;50.90
18287;DHT22;9269;50.838;12.094;2022-09-20T07:18:30;15.70;50.70
18287;DHT22;9269;50.838;12.094;2022-09-20T07:21:01;15.70;50.80
18287;DHT22;9269;50.838;12.094;2022-09-20T07:23:31;15.60;50.40
18287;DHT22;9269;50.838;12.094;2022-09-20T07:25:59;15.60;50.70
18287;DHT22;9269;50.838;12.094;2022-09-20T07:28:29;15.60;50.50
18287;DHT22;9269;50.838;12.094;2022-09-20T07:30:58;15.50;50.40
18287;DHT22;9269;50.838;12.094;2022-09-20T07:33:27;15.40;50.50
18287;DHT22;9269;50.838;12.094;2022-09-20T07:35:55;15.30;51.70
18287;DHT22;9269;50.838;12.094;2022-09-20T07:38:25;15.30;51.80
18287;DHT22;9269;50.838;12.094;2022-09-20T07:40:54;15.30;51.60
18287;DHT22;9269;50.838;12.094;2022-09-20T07:43:24;15.30;51.50
18287;DHT22;9269;50.838;12.094;2022-09-20T07:45:53;15.40;51.50
18287;DHT22;9269;50.838;12.094;2022-09-20T07:48:23;15.40;51.40
18287;DHT22;9269;50.838;12.094;2022-09-20T07:50:54;15.50;50.30
18287;DHT22;9269;50.838;12.094;2022-09-20T07:53:22;15.70;49.70
18287;DHT22;9269;50.838;12.094;2022-09-20T07:56:00;15.90;49.80
18287;DHT22;9269;50.838;12.094;2022-09-20T07:58:30;16.10;49.80
18287;DHT22;9269;50.838;12.094;2022-09-20T08:01:01;16.20;49.70
18287;DHT22;9269;50.838;12.094;2022-09-20T08:03:31;16.20;49.00
18287;DHT22;9269;50.838;12.094;2022-09-20T08:06:01;16.20;49.00
18287;DHT22;9269;50.838;12.094;2022-09-20T08:08:31;16.20;49.00
18287;DHT22;9269;50.838;12.094;2022-09-20T08:11:06;16.10;49.10
18287;DHT22;9269;50.838;12.094;2022-09-20T08:13:35;16.10;48.90
18287;DHT22;9269;50.838;12.094;2022-09-20T08:16:24;16.10;48.60
18287;DHT22;9269;50.838;12.094;2022-09-20T08:18:57;16.10;48.60
18287;DHT22;9269;50.838;12.094;2022-09-20T08:21:27;16.20;48.50
18287;DHT22;9269;50.838;12.094;2022-09-20T08:23:58;16.20;48.80
18287;DHT22;9269;50.838;12.094;2022-09-20T08:26:29;16.10;48.60
18287;DHT22;9269;50.838;12.094;2022-09-20T08:28:59;16.10;48.70
18287;DHT22;9269;50.838;12.094;2022-09-20T08:31:29;16.10;48.20
18287;DHT22;9269;50.838;12.094;2022-09-20T08:34:04;16.10;48.50
18287;DHT22;9269;50.838;12.094;2022-09-20T08:36:38;16.20;48.40
18287;DHT22;9269;50.838;12.094;2022-09-20T08:39:08;16.20;48.30
18287;DHT22;9269;50.838;12.094;2022-09-20T08:42:05;16.40;48.00
18287;DHT22;9269;50.838;12.094;2022-09-20T08:44:47;16.30;47.80
18287;DHT22;9269;50.838;12.094;2022-09-20T08:47:28;16.40;47.10
18287;DHT22;9269;50.838;12.094;2022-09-20T08:49:58;16.60;47.20
18287;DHT22;9269;50.838;12.094;2022-09-20T08:52:36;16.70;46.90
18287;DHT22;9269;50.838;12.094;2022-09-20T08:55:17;16.90;46.50
18287;DHT22;9269;50.838;12.094;2022-09-20T08:57:49;17.10;46.00
18287;DHT22;9269;50.838;12.094;2022-09-20T09:00:20;17.30;45.90
18287;DHT22;9269;50.838;12.094;2022-09-20T09:02:49;17.40;45.70
18287;DHT22;9269;50.838;12.094;2022-09-20T09:05:30;17.30;45.60
18287;DHT22;9269;50.838;12.094;2022-09-20T09:08:01;17.20;45.50
18287;DHT22;9269;50.838;12.094;2022-09-20T09:10:35;17.20;45.80
18287;DHT22;9269;50.838;12.094;2022-09-20T09:13:21;17.10;45.80
18287;DHT22;9269;50.838;12.094;2022-09-20T09:15:56;17.10;45.20
18287;DHT22;9269;50.838;12.094;2022-09-20T09:18:31;17.20;45.40
18287;DHT22;9269;50.838;12.094;2022-09-20T09:21:03;17.20;45.30
18287;DHT22;9269;50.838;12.094;2022-09-20T09:23:39;17.40;45.20
18287;DHT22;9269;50.838;12.094;2022-09-20T09:26:17;17.50;45.30
18287;DHT22;9269;50.838;12.094;2022-09-20T09:29:12;17.70;44.90
18287;DHT22;9269;50.838;12.094;2022-09-20T09:31:42;18.00;44.70
18287;DHT22;9269;50.838;12.094;2022-09-20T09:34:22;18.20;42.70
18287;DHT22;9269;50.838;12.094;2022-09-20T09:36:52;18.30;42.90
18287;DHT22;9269;50.838;12.094;2022-09-20T09:39:24;18.40;42.20
18287;DHT22;9269;50.838;12.094;2022-09-20T09:41:53;18.30;41.70
18287;DHT22;9269;50.838;12.094;2022-09-20T09:44:24;18.20;41.90
18287;DHT22;9269;50.838;12.094;2022-09-20T09:46:54;18.00;43.20
18287;DHT22;9269;50.838;12.094;2022-09-20T09:49:25;18.10;43.20
18287;DHT22;9269;50.838;12.094;2022-09-20T09:52:05;18.00;43.70
18287;DHT22;9269;50.838;12.094;2022-09-20T09:54:39;17.90;43.10
18287;DHT22;9269;50.838;12.094;2022-09-20T09:57:25;18.00;43.80
18287;DHT22;9269;50.838;12.094;2022-09-20T10:00:08;18.00;43.50
18287;DHT22;9269;50.838;12.094;2022-09-20T10:03:11;17.90;43.80
18287;DHT22;9269;50.838;12.094;2022-09-20T10:05:52;18.00;43.40
18287;DHT22;9269;50.838;12.094;2022-09-20T10:08:35;18.10;43.30
18287;DHT22;9269;50.838;12.094;2022-09-20T10:11:18;18.10;43.10
18287;DHT22;9269;50.838;12.094;2022-09-20T10:14:02;18.20;41.70
18287;DHT22;9269;50.838;12.094;2022-09-20T10:16:48;18.10;42.70
18287;DHT22;9269;50.838;12.094;2022-09-20T10:19:27;18.10;42.50
18287;DHT22;9269;50.838;12.094;2022-09-20T10:22:06;18.10;42.50
18287;DHT22;9269;50.838;12.094;2022-09-20T10:24:42;18.10;42.50
18287;DHT22;9269;50.838;12.094;2022-09-20T10:27:26;18.10;43.00
18287;DHT22;9269;50.838;12.094;2022-09-20T10:30:08;18.10;42.80
18287;DHT22;9269;50.838;12.094;2022-09-20T10:32:54;18.20;41.30
18287;DHT22;9269;50.838;12.094;2022-09-20T10:35:34;18.20;41.40
18287;DHT22;9269;50.838;12.094;2022-09-20T10:38:15;18.20;41.30
18287;DHT22;9269;50.838;12.094;2022-09-20T10:40:56;18.30;40.90
18287;DHT22;9269;50.838;12.094;2022-09-20T10:44:01;18.30;41.20
18287;DHT22;9269;50.838;12.094;2022-09-20T10:46:44;18.40;41.40
18287;DHT22;9269;50.838;12.094;2022-09-20T10:49:20;18.50;41.40
18287;DHT22;9269;50.838;12.094;2022-09-20T10:52:02;18.40;41.30
18287;DHT22;9269;50.838;12.094;2022-09-20T10:54:44;18.40;41.20
18287;DHT22;9269;50.838;12.094;2022-09-20T10:57:33;18.40;41.10
18287;DHT22;9269;50.838;12.094;2022-09-20T11:00:19;18.30;40.90
18287;DHT22;9269;50.838;12.094;2022-09-20T11:03:07;18.40;40.50
18287;DHT22;9269;50.838;12.094;2022-09-20T11:05:45;18.50;40.50
18287;DHT22;9269;50.838;12.094;2022-09-20T11:08:23;18.50;40.40
18287;DHT22;9269;50.838;12.094;2022-09-20T11:10:58;18.50;40.30
18287;DHT22;9269;50.838;12.094;2022-09-20T11:13:37;18.70;40.10
18287;DHT22;9269;50.838;12.094;2022-09-20T11:16:13;18.80;39.80
18287;DHT22;9269;50.838;12.094;2022-09-20T11:18:47;18.80;39.70
18287;DHT22;9269;50.838;12.094;2022-09-20T11:21:23;19.00;39.00
18287;DHT22;9269;50.838;12.094;2022-09-20T11:23:58;19.10;38.90
18287;DHT22;9269;50.838;12.094;2022-09-20T11:26:35;19.30;38.80
18287;DHT22;9269;50.838;12.094;2022-09-20T11:29:11;19.40;38.50
18287;DHT22;9269;50.838;12.094;2022-09-20T11:31:45;19.60;38.40
18287;DHT22;9269;50.838;12.094;2022-09-20T11:34:19;19.80;38.00
18287;DHT22;9269;50.838;12.094;2022-09-20T11:36:54;19.90;37.30
18287;DHT22;9269;50.838;12.094;2022-09-20T11:39:29;20.10;37.10
18287;DHT22;9269;50.838;12.094;2022-09-20T11:42:02;20.00;37.50
18287;DHT22;9269;50.838;12.094;2022-09-20T11:44:31;19.90;36.60
18287;DHT22;9269;50.838;12.094;2022-09-20T11:47:05;19.90;36.80
18287;DHT22;9269;50.838;12.094;2022-09-20T11:49:46;20.00;37.20
18287;DHT22;9269;50.838;12.094;2022-09-20T11:52:32;20.00;37.10
18287;DHT22;9269;50.838;12.094;2022-09-20T11:55:19;20.00;37.30
18287;DHT22;9269;50.838;12.094;2022-09-20T11:58:06;19.90;37.20
18287;DHT22;9269;50.838;12.094;2022-09-20T12:00:37;19.80;37.10
18287;DHT22;9269;50.838;12.094;2022-09-20T12:03:27;19.80;36.90
18287;DHT22;9269;50.838;12.094;2022-09-20T12:05:59;19.90;36.90
18287;DHT22;9269;50.838;12.094;2022-09-20T12:08:32;20.00;36.80
18287;DHT22;9269;50.838;12.094;2022-09-20T12:11:05;20.00;36.70
18287;DHT22;9269;50.838;12.094;2022-09-20T12:13:36;20.10;36.20
18287;DHT22;9269;50.838;12.094;2022-09-20T12:16:07;20.20;36.00
18287;DHT22;9269;50.838;12.094;2022-09-20T12:19:02;20.30;35.50
18287;DHT22;9269;50.838;12.094;2022-09-20T12:24:39;20.50;35.00
18287;DHT22;9269;50.838;12.094;2022-09-20T12:27:21;20.70;34.30
18287;DHT22;9269;50.838;12.094;2022-09-20T12:30:02;20.50;34.60
18287;DHT22;9269;50.838;12.094;2022-09-20T12:32:42;20.40;35.00
18287;DHT22;9269;50.838;12.094;2022-09-20T12:38:37;20.20;35.20
18287;DHT22;9269;50.838;12.094;2022-09-20T12:41:12;20.10;35.60
18287;DHT22;9269;50.838;12.094;2022-09-20T12:43:54;20.00;35.60
18287;DHT22;9269;50.838;12.094;2022-09-20T12:46:30;19.90;35.90
18287;DHT22;9269;50.838;12.094;2022-09-20T12:49:20;19.80;35.70
18287;DHT22;9269;50.838;12.094;2022-09-20T12:52:03;19.90;36.10
18287;DHT22;9269;50.838;12.094;2022-09-20T12:54:51;20.30;35.30
18287;DHT22;9269;50.838;12.094;2022-09-20T12:57:29;20.40;35.20
18287;DHT22;9269;50.838;12.094;2022-09-20T13:00:00;20.70;34.90
18287;DHT22;9269;50.838;12.094;2022-09-20T13:02:58;20.90;32.50
18287;DHT22;9269;50.838;12.094;2022-09-20T13:05:32;21.00;32.90
18287;DHT22;9269;50.838;12.094;2022-09-20T13:08:13;21.10;31.90
18287;DHT22;9269;50.838;12.094;2022-09-20T13:10:46;20.90;32.30
18287;DHT22;9269;50.838;12.094;2022-09-20T13:13:27;20.90;33.40
18287;DHT22;9269;50.838;12.094;2022-09-20T13:15:58;20.70;33.20
18287;DHT22;9269;50.838;12.094;2022-09-20T13:18:34;20.70;33.80
18287;DHT22;9269;50.838;12.094;2022-09-20T13:21:06;20.40;33.70
18287;DHT22;9269;50.838;12.094;2022-09-20T13:23:45;20.30;32.80
18287;DHT22;9269;50.838;12.094;2022-09-20T13:26:19;20.30;33.50
18287;DHT22;9269;50.838;12.094;2022-09-20T13:28:53;20.10;33.80
18287;DHT22;9269;50.838;12.094;2022-09-20T13:31:28;20.10;33.50
18287;DHT22;9269;50.838;12.094;2022-09-20T13:34:17;20.20;33.70
18287;DHT22;9269;50.838;12.094;2022-09-20T13:36:50;20.10;33.80
18287;DHT22;9269;50.838;12.094;2022-09-20T13:39:26;20.00;33.70
18287;DHT22;9269;50.838;12.094;2022-09-20T13:41:59;20.10;33.70
18287;DHT22;9269;50.838;12.094;2022-09-20T13:44:31;20.20;33.70
18287;DHT22;9269;50.838;12.094;2022-09-20T13:47:22;20.30;33.60
18287;DHT22;9269;50.838;12.094;2022-09-20T13:49:54;20.40;33.80
18287;DHT22;9269;50.838;12.094;2022-09-20T13:52:29;20.30;33.70
18287;DHT22;9269;50.838;12.094;2022-09-20T13:54:58;20.40;33.20
18287;DHT22;9269;50.838;12.094;2022-09-20T13:57:29;20.40;33.10
18287;DHT22;9269;50.838;12.094;2022-09-20T14:00:01;20.30;32.50
18287;DHT22;9269;50.838;12.094;2022-09-20T14:02:31;20.10;32.30
18287;DHT22;9269;50.838;12.094;2022-09-20T14:05:06;20.00;32.60
18287;DHT22;9269;50.838;12.094;2022-09-20T14:07:43;20.00;33.10
18287;DHT22;9269;50.838;12.094;2022-09-20T14:10:26;20.00;33.30
18287;DHT22;9269;50.838;12.094;2022-09-20T14:12:59;20.00;33.50
18287;DHT22;9269;50.838;12.094;2022-09-20T14:15:36;20.00;33.30
18287;DHT22;9269;50.838;12.094;2022-09-20T14:18:06;19.90;33.50
18287;DHT22;9269;50.838;12.094;2022-09-20T14:20:36;19.80;33.40
18287;DHT22;9269;50.838;12.094;2022-09-20T14:23:04;19.80;33.70
18287;DHT22;9269;50.838;12.094;2022-09-20T14:25:32;19.70;34.00
18287;DHT22;9269;50.838;12.094;2022-09-20T14:28:17;19.60;34.40
18287;DHT22;9269;50.838;12.094;2022-09-20T14:30:47;19.60;34.30
18287;DHT22;9269;50.838;12.094;2022-09-20T14:33:18;19.50;34.40
18287;DHT22;9269;50.838;12.094;2022-09-20T14:35:49;19.40;34.30
18287;DHT22;9269;50.838;12.094;2022-09-20T14:38:22;19.40;34.80
18287;DHT22;9269;50.838;12.094;2022-09-20T14:40:52;19.20;34.70
18287;DHT22;9269;50.838;12.094;2022-09-20T14:43:24;19.40;35.00
18287;DHT22;9269;50.838;12.094;2022-09-20T14:45:56;19.30;34.60
18287;DHT22;9269;50.838;12.094;2022-09-20T14:48:37;19.30;34.60
18287;DHT22;9269;50.838;12.094;2022-09-20T14:51:19;19.40;34.70
18287;DHT22;9269;50.838;12.094;2022-09-20T14:53:51;19.40;34.30
18287;DHT22;9269;50.838;12.094;2022-09-20T14:56:32;19.30;34.00
18287;DHT22;9269;50.838;12.094;2022-09-20T14:59:05;19.20;34.00
18287;DHT22;9269;50.838;12.094;2022-09-20T15:01:38;19.20;34.10
18287;DHT22;9269;50.838;12.094;2022-09-20T15:04:19;19.10;34.50
18287;DHT22;9269;50.838;12.094;2022-09-20T15:06:48;19.10;34.20
18287;DHT22;9269;50.838;12.094;2022-09-20T15:09:19;19.10;34.80
18287;DHT22;9269;50.838;12.094;2022-09-20T15:11:59;19.10;34.40
18287;DHT22;9269;50.838;12.094;2022-09-20T15:14:27;19.00;34.30
18287;DHT22;9269;50.838;12.094;2022-09-20T15:17:10;19.00;34.20
18287;DHT22;9269;50.838;12.094;2022-09-20T15:19:41;19.00;33.90
18287;DHT22;9269;50.838;12.094;2022-09-20T15:22:10;19.00;34.10
18287;DHT22;9269;50.838;12.094;2022-09-20T15:24:39;18.90;34.30
18287;DHT22;9269;50.838;12.094;2022-09-20T15:27:17;18.90;34.50
18287;DHT22;9269;50.838;12.094;2022-09-20T15:29:46;18.90;34.70
18287;DHT22;9269;50.838;12.094;2022-09-20T15:32:16;18.90;34.80
18287;DHT22;9269;50.838;12.094;2022-09-20T15:34:44;18.80;34.80
18287;DHT22;9269;50.838;12.094;2022-09-20T15:37:12;18.70;34.80
18287;DHT22;9269;50.838;12.094;2022-09-20T15:39:41;18.70;34.80
18287;DHT22;9269;50.838;12.094;2022-09-20T15:42:11;18.70;34.80
18287;DHT22;9269;50.838;12.094;2022-09-20T15:44:42;18.60;34.70
18287;DHT22;9269;50.838;12.094;2022-09-20T15:47:11;18.60;34.80
18287;DHT22;9269;50.838;12.094;2022-09-20T15:49:48;18.50;35.00
18287;DHT22;9269;50.838;12.094;2022-09-20T15:52:17;18.50;35.20
18287;DHT22;9269;50.838;12.094;2022-09-20T15:54:53;18.40;34.90
18287;DHT22;9269;50.838;12.094;2022-09-20T15:57:26;18.40;35.20
18287;DHT22;9269;50.838;12.094;2022-09-20T15:59:55;18.30;35.20
18287;DHT22;9269;50.838;12.094;2022-09-20T16:02:24;18.20;35.20
18287;DHT22;9269;50.838;12.094;2022-09-20T16:04:55;18.30;35.20
18287;DHT22;9269;50.838;12.094;2022-09-20T16:07:25;18.20;35.10
18287;DHT22;9269;50.838;12.094;2022-09-20T16:09:55;18.10;36.30
18287;DHT22;9269;50.838;12.094;2022-09-20T16:12:24;18.10;36.70
18287;DHT22;9269;50.838;12.094;2022-09-20T16:14:54;18.00;36.80
18287;DHT22;9269;50.838;12.094;2022-09-20T16:17:23;18.00;36.80
18287;DHT22;9269;50.838;12.094;2022-09-20T16:20:08;17.80;37.00
18287;DHT22;9269;50.838;12.094;2022-09-20T16:22:40;17.80;36.90
18287;DHT22;9269;50.838;12.094;2022-09-20T16:25:10;17.70;37.00
18287;DHT22;9269;50.838;12.094;2022-09-20T16:27:38;17.60;36.90
18287;DHT22;9269;50.838;12.094;2022-09-20T16:30:08;17.50;36.90
18287;DHT22;9269;50.838;12.094;2022-09-20T16:32:39;17.50;37.50
18287;DHT22;9269;50.838;12.094;2022-09-20T16:35:10;17.50;37.20
18287;DHT22;9269;50.838;12.094;2022-09-20T16:37:39;17.50;37.40
18287;DHT22;9269;50.838;12.094;2022-09-20T16:40:08;17.30;37.40
18287;DHT22;9269;50.838;12.094;2022-09-20T16:42:40;17.30;37.30
18287;DHT22;9269;50.838;12.094;2022-09-20T16:45:18;17.30;37.00
18287;DHT22;9269;50.838;12.094;2022-09-20T16:47:47;17.20;37.80
18287;DHT22;9269;50.838;12.094;2022-09-20T16:50:17;17.20;37.80
18287;DHT22;9269;50.838;12.094;2022-09-20T16:52:47;17.20;37.90
18287;DHT22;9269;50.838;12.094;2022-09-20T16:55:16;17.10;38.00
18287;DHT22;9269;50.838;12.094;2022-09-20T16:57:47;17.10;38.30
18287;DHT22;9269;50.838;12.094;2022-09-20T17:00:16;17.00;38.30